Gardez Airport


Codes: OAKA/GRG
Name: Gardez Airport
City: Gardez
Country: Afghanistan
Elevation: 7790 ft.
Wikipedia:

Photos at Gardez Airport


   Photos courtesy of SpottingLog. You can add your own sightings and photos by signing up for a free trial today.



No photos found.

Weather at Gardez Airport


Time (UTC)DescriptionTempratureWindCloud coverageVisibilityPressureHumidity
17-Jun-2024 06:00Clear Sky26°C7 mph, SW1%10000m1008hPa18%
17-Jun-2024 09:00Clear Sky27°C13 mph, SW6%10000m1007hPa16%
17-Jun-2024 12:00Few Clouds28°C16 mph, W15%10000m1005hPa14%
17-Jun-2024 15:00Broken Clouds25°C4 mph, W51%10000m1006hPa24%
17-Jun-2024 18:00Scattered Clouds21°C4 mph, NW48%10000m1008hPa36%
17-Jun-2024 21:00Clear Sky18°C7 mph, N3%10000m1008hPa46%
18-Jun-2024 00:00Clear Sky16°C7 mph, N1%10000m1010hPa56%
18-Jun-2024 03:00Clear Sky20°C7 mph, N1%10000m1009hPa38%
18-Jun-2024 06:00Clear Sky25°C7 mph, NW9%10000m1006hPa25%
18-Jun-2024 09:00Few Clouds28°C13 mph, NW15%10000m1003hPa18%
18-Jun-2024 12:00Scattered Clouds24°C18 mph, NW42%10000m1004hPa28%
18-Jun-2024 15:00Broken Clouds20°C7 mph, N72%10000m1007hPa39%
18-Jun-2024 18:00Broken Clouds19°C4 mph, N61%10000m1007hPa43%
18-Jun-2024 21:00Clear Sky18°C7 mph, N0%10000m1006hPa43%
19-Jun-2024 00:00Clear Sky16°C4 mph, N0%10000m1007hPa41%
19-Jun-2024 03:00Clear Sky20°C7 mph, N3%10000m1007hPa31%
19-Jun-2024 06:00Clear Sky24°C7 mph, NW2%10000m1005hPa22%
19-Jun-2024 09:00Clear Sky26°C16 mph, NW0%10000m1003hPa18%
19-Jun-2024 12:00Clear Sky26°C13 mph, N0%10000m1001hPa18%
19-Jun-2024 15:00Scattered Clouds23°C4 mph, NE32%10000m1002hPa20%
19-Jun-2024 18:00Scattered Clouds20°C2 mph, NE38%10000m1004hPa32%
19-Jun-2024 21:00Broken Clouds19°C4 mph, N69%10000m1005hPa32%
20-Jun-2024 00:00Broken Clouds16°C7 mph, N57%10000m1006hPa34%
20-Jun-2024 03:00Light Rain19°C4 mph, N83%10000m1007hPa28%
20-Jun-2024 06:00Light Rain22°C4 mph, N87%10000m1006hPa29%
20-Jun-2024 09:00Light Rain21°C7 mph, E41%10000m1004hPa38%
20-Jun-2024 12:00Broken Clouds22°C2 mph, SE56%10000m1003hPa35%
20-Jun-2024 15:00Broken Clouds20°C4 mph, NE52%10000m1005hPa40%
20-Jun-2024 18:00Broken Clouds19°C2 mph, N63%10000m1006hPa41%
20-Jun-2024 21:00Scattered Clouds17°C7 mph, N44%10000m1006hPa49%
21-Jun-2024 00:00Scattered Clouds16°C4 mph, NE29%10000m1007hPa52%
21-Jun-2024 03:00Clear Sky20°C2 mph, N0%10000m1006hPa37%
21-Jun-2024 06:00Clear Sky24°C2 mph, SW3%10000m1005hPa28%
21-Jun-2024 09:00Broken Clouds26°C2 mph, NW57%10000m1001hPa21%
21-Jun-2024 12:00Light Rain21°C11 mph, NE69%10000m1005hPa42%
21-Jun-2024 15:00Broken Clouds20°C2 mph, NW60%10000m1006hPa43%
21-Jun-2024 18:00Light Rain19°C2 mph, N51%10000m1008hPa50%
21-Jun-2024 21:00Broken Clouds17°C2 mph, NW65%10000m1007hPa47%
22-Jun-2024 00:00Broken Clouds16°C2 mph, N81%10000m1007hPa50%
22-Jun-2024 03:00Scattered Clouds20°C7 mph, N29%10000m1007hPa38%